sensor_id;sensor_type;location;lat;lon;timestamp;pressure;altitude;pressure_sealevel;temperature;humidity
42067;BME280;27734;47.028;28.820;2023-04-22T00:01:26;100060.92;;;7.43;100.00
42067;BME280;27734;47.028;28.820;2023-04-22T00:03:57;100056.55;;;7.42;100.00
42067;BME280;27734;47.028;28.820;2023-04-22T00:06:29;100064.45;;;7.44;100.00
42067;BME280;27734;47.028;28.820;2023-04-22T00:09:02;100062.59;;;7.41;100.00
42067;BME280;27734;47.028;28.820;2023-04-22T00:11:33;100063.53;;;7.43;100.00
42067;BME280;27734;47.028;28.820;2023-04-22T00:14:04;100065.20;;;7.41;100.00
42067;BME280;27734;47.028;28.820;2023-04-22T00:16:35;100059.98;;;7.41;100.00
42067;BME280;27734;47.028;28.820;2023-04-22T00:19:07;100068.69;;;7.42;100.00
42067;BME280;27734;47.028;28.820;2023-04-22T00:21:38;100064.37;;;7.42;100.00
42067;BME280;27734;47.028;28.820;2023-04-22T00:24:09;100064.31;;;7.41;100.00
42067;BME280;27734;47.028;28.820;2023-04-22T00:26:40;100063.34;;;7.38;100.00
42067;BME280;27734;47.028;28.820;2023-04-22T00:29:12;100066.80;;;7.37;100.00
42067;BME280;27734;47.028;28.820;2023-04-22T00:31:43;100068.40;;;7.34;100.00
42067;BME280;27734;47.028;28.820;2023-04-22T00:34:14;100066.61;;;7.33;100.00
42067;BME280;27734;47.028;28.820;2023-04-22T00:36:47;100061.26;;;7.30;100.00
42067;BME280;27734;47.028;28.820;2023-04-22T00:39:18;100077.80;;;7.30;100.00
42067;BME280;27734;47.028;28.820;2023-04-22T00:41:50;100068.14;;;7.28;100.00
42067;BME280;27734;47.028;28.820;2023-04-22T00:44:23;100072.38;;;7.26;100.00
42067;BME280;27734;47.028;28.820;2023-04-22T00:46:55;100069.70;;;7.24;100.00
42067;BME280;27734;47.028;28.820;2023-04-22T00:49:27;100077.41;;;7.21;100.00
42067;BME280;27734;47.028;28.820;2023-04-22T00:51:59;100072.13;;;7.19;100.00
42067;BME280;27734;47.028;28.820;2023-04-22T00:54:31;100073.79;;;7.17;100.00
42067;BME280;27734;47.028;28.820;2023-04-22T00:57:05;100079.75;;;7.15;100.00
42067;BME280;27734;47.028;28.820;2023-04-22T00:59:37;100086.58;;;7.11;100.00
42067;BME280;27734;47.028;28.820;2023-04-22T01:02:09;100083.02;;;7.09;100.00
42067;BME280;27734;47.028;28.820;2023-04-22T01:04:40;100076.88;;;7.09;100.00
42067;BME280;27734;47.028;28.820;2023-04-22T01:07:12;100088.10;;;7.06;100.00
42067;BME280;27734;47.028;28.820;2023-04-22T01:09:43;100090.64;;;7.05;100.00
42067;BME280;27734;47.028;28.820;2023-04-22T01:12:16;100086.30;;;7.05;100.00
42067;BME280;27734;47.028;28.820;2023-04-22T01:14:47;100094.06;;;7.04;100.00
42067;BME280;27734;47.028;28.820;2023-04-22T01:17:19;100091.39;;;7.02;100.00
42067;BME280;27734;47.028;28.820;2023-04-22T01:19:50;100091.33;;;7.00;100.00
42067;BME280;27734;47.028;28.820;2023-04-22T01:22:25;100092.98;;;6.98;100.00
42067;BME280;27734;47.028;28.820;2023-04-22T01:24:58;100098.14;;;6.97;100.00
42067;BME280;27734;47.028;28.820;2023-04-22T01:27:30;100100.67;;;6.95;100.00
42067;BME280;27734;47.028;28.820;2023-04-22T01:30:02;100094.41;;;6.92;100.00
42067;BME280;27734;47.028;28.820;2023-04-22T01:32:35;100108.30;;;6.91;100.00
42067;BME280;27734;47.028;28.820;2023-04-22T01:35:08;100103.02;;;6.89;100.00
42067;BME280;27734;47.028;28.820;2023-04-22T01:37:39;100102.03;;;6.87;100.00
42067;BME280;27734;47.028;28.820;2023-04-22T01:40:12;100112.40;;;6.86;100.00
42067;BME280;27734;47.028;28.820;2023-04-22T01:42:48;100106.30;;;6.85;100.00
42067;BME280;27734;47.028;28.820;2023-04-22T01:45:20;100108.03;;;6.84;100.00
42067;BME280;27734;47.028;28.820;2023-04-22T01:47:51;100115.92;;;6.86;100.00
42067;BME280;27734;47.028;28.820;2023-04-22T01:50:23;100101.97;;;6.86;100.00
42067;BME280;27734;47.028;28.820;2023-04-22T01:52:55;100105.55;;;6.88;100.00
42067;BME280;27734;47.028;28.820;2023-04-22T01:55:26;100109.86;;;6.87;100.00
42067;BME280;27734;47.028;28.820;2023-04-22T01:57:57;100109.92;;;6.89;100.00
42067;BME280;27734;47.028;28.820;2023-04-22T02:00:29;100115.14;;;6.89;100.00
42067;BME280;27734;47.028;28.820;2023-04-22T02:03:00;100120.49;;;6.92;100.00
42067;BME280;27734;47.028;28.820;2023-04-22T02:05:31;100109.18;;;6.91;100.00
42067;BME280;27734;47.028;28.820;2023-04-22T02:08:03;100113.59;;;6.92;100.00
42067;BME280;27734;47.028;28.820;2023-04-22T02:10:34;100116.27;;;6.94;100.00
42067;BME280;27734;47.028;28.820;2023-04-22T02:13:06;100111.05;;;6.94;100.00
42067;BME280;27734;47.028;28.820;2023-04-22T02:15:37;100114.53;;;6.94;100.00
42067;BME280;27734;47.028;28.820;2023-04-22T02:18:09;100116.27;;;6.94;100.00
42067;BME280;27734;47.028;28.820;2023-04-22T02:20:41;100117.07;;;6.93;100.00
42067;BME280;27734;47.028;28.820;2023-04-22T02:23:12;100118.80;;;6.92;100.00
42067;BME280;27734;47.028;28.820;2023-04-22T02:25:50;100109.11;;;6.90;100.00
42067;BME280;27734;47.028;28.820;2023-04-22T02:28:22;100116.94;;;6.90;100.00
42067;BME280;27734;47.028;28.820;2023-04-22T02:30:53;100118.66;;;6.89;100.00
42067;BME280;27734;47.028;28.820;2023-04-22T02:33:24;100117.81;;;6.90;100.00
42067;BME280;27734;47.028;28.820;2023-04-22T02:35:56;100116.13;;;6.91;100.00
42067;BME280;27734;47.028;28.820;2023-04-22T02:38:28;100108.37;;;6.92;100.00
42067;BME280;27734;47.028;28.820;2023-04-22T02:40:59;100116.27;;;6.94;100.00
42067;BME280;27734;47.028;28.820;2023-04-22T02:43:30;100113.66;;;6.94;100.00
42067;BME280;27734;47.028;28.820;2023-04-22T02:46:01;100114.60;;;6.96;100.00
42067;BME280;27734;47.028;28.820;2023-04-22T02:48:33;100111.17;;;6.97;100.00
42067;BME280;27734;47.028;28.820;2023-04-22T02:51:07;100119.95;;;6.99;100.00
42067;BME280;27734;47.028;28.820;2023-04-22T02:53:38;100117.34;;;6.99;100.00
42067;BME280;27734;47.028;28.820;2023-04-22T02:56:12;100123.44;;;6.99;100.00
42067;BME280;27734;47.028;28.820;2023-04-22T02:58:43;100122.56;;;6.99;100.00
42067;BME280;27734;47.028;28.820;2023-04-22T03:01:15;100129.58;;;7.00;100.00
42067;BME280;27734;47.028;28.820;2023-04-22T03:03:46;100121.75;;;7.00;100.00
42067;BME280;27734;47.028;28.820;2023-04-22T03:06:22;100122.63;;;7.00;100.00
42067;BME280;27734;47.028;28.820;2023-04-22T03:08:54;100127.91;;;7.02;100.00
42067;BME280;27734;47.028;28.820;2023-04-22T03:11:25;100141.84;;;7.02;100.00
42067;BME280;27734;47.028;28.820;2023-04-22T03:13:56;100138.42;;;7.04;100.00
42067;BME280;27734;47.028;28.820;2023-04-22T03:16:30;100138.42;;;7.04;100.00
42067;BME280;27734;47.028;28.820;2023-04-22T03:19:05;100133.20;;;7.04;100.00
42067;BME280;27734;47.028;28.820;2023-04-22T03:21:36;100139.30;;;7.04;100.00
42067;BME280;27734;47.028;28.820;2023-04-22T03:24:08;100147.19;;;7.06;100.00
42067;BME280;27734;47.028;28.820;2023-04-22T03:26:40;100149.87;;;7.07;100.00
42067;BME280;27734;47.028;28.820;2023-04-22T03:29:11;100149.94;;;7.09;100.00
42067;BME280;27734;47.028;28.820;2023-04-22T03:31:43;100156.07;;;7.09;100.00
42067;BME280;27734;47.028;28.820;2023-04-22T03:34:14;100151.67;;;7.08;100.00
42067;BME280;27734;47.028;28.820;2023-04-22T03:36:47;100153.46;;;7.09;100.00
42067;BME280;27734;47.028;28.820;2023-04-22T03:39:18;100157.90;;;7.12;100.00
42067;BME280;27734;47.028;28.820;2023-04-22T03:41:50;100165.80;;;7.13;100.00
42067;BME280;27734;47.028;28.820;2023-04-22T03:44:21;100162.44;;;7.16;100.00
42067;BME280;27734;47.028;28.820;2023-04-22T03:46:53;100159.97;;;7.19;100.00
42067;BME280;27734;47.028;28.820;2023-04-22T03:49:25;100164.51;;;7.23;100.00
42067;BME280;27734;47.028;28.820;2023-04-22T03:51:58;100170.61;;;7.24;100.00
42067;BME280;27734;47.028;28.820;2023-04-22T03:54:30;100169.86;;;7.26;100.00
42067;BME280;27734;47.028;28.820;2023-04-22T03:57:02;100171.69;;;7.29;100.00
42067;BME280;27734;47.028;28.820;2023-04-22T03:59:33;100173.63;;;7.33;100.00
42067;BME280;27734;47.028;28.820;2023-04-22T04:02:04;100179.86;;;7.36;100.00
42067;BME280;27734;47.028;28.820;2023-04-22T04:04:37;100179.11;;;7.39;100.00
42067;BME280;27734;47.028;28.820;2023-04-22T04:07:11;100187.14;;;7.44;100.00
42067;BME280;27734;47.028;28.820;2023-04-22T04:09:42;100192.56;;;7.48;100.00
42067;BME280;27734;47.028;28.820;2023-04-22T04:12:14;100188.35;;;7.52;100.00
42067;BME280;27734;47.028;28.820;2023-04-22T04:14:46;100195.50;;;7.56;100.00
42067;BME280;27734;47.028;28.820;2023-04-22T04:17:19;100195.70;;;7.61;100.00
42067;BME280;27734;47.028;28.820;2023-04-22T04:19:54;100198.58;;;7.67;100.00
42067;BME280;27734;47.028;28.820;2023-04-22T04:22:26;100204.94;;;7.73;100.00
42067;BME280;27734;47.028;28.820;2023-04-22T04:25:00;100209.55;;;7.79;100.00
42067;BME280;27734;47.028;28.820;2023-04-22T04:27:36;100216.72;;;7.85;100.00
42067;BME280;27734;47.028;28.820;2023-04-22T04:30:11;100207.38;;;7.90;100.00
42067;BME280;27734;47.028;28.820;2023-04-22T04:32:45;100209.27;;;7.94;100.00
42067;BME280;27734;47.028;28.820;2023-04-22T04:35:18;100213.02;;;8.01;100.00
42067;BME280;27734;47.028;28.820;2023-04-22T04:37:53;100212.45;;;8.08;100.00
42067;BME280;27734;47.028;28.820;2023-04-22T04:40:25;100217.05;;;8.14;100.00
42067;BME280;27734;47.028;28.820;2023-04-22T04:43:07;100212.08;;;8.20;100.00
42067;BME280;27734;47.028;28.820;2023-04-22T04:45:47;100224.61;;;8.28;100.00
42067;BME280;27734;47.028;28.820;2023-04-22T04:48:21;100224.09;;;8.37;100.00
42067;BME280;27734;47.028;28.820;2023-04-22T04:50:55;100229.67;;;8.45;100.00
42067;BME280;27734;47.028;28.820;2023-04-22T04:53:28;100222.95;;;8.52;100.00
42067;BME280;27734;47.028;28.820;2023-04-22T04:55:59;100224.98;;;8.59;100.00
42067;BME280;27734;47.028;28.820;2023-04-22T05:01:16;100235.98;;;8.73;100.00
42067;BME280;27734;47.028;28.820;2023-04-22T05:03:49;100231.81;;;8.78;100.00
42067;BME280;27734;47.028;28.820;2023-04-22T05:06:21;100234.73;;;8.86;100.00
42067;BME280;27734;47.028;28.820;2023-04-22T05:08:56;100228.99;;;8.96;100.00
42067;BME280;27734;47.028;28.820;2023-04-22T05:11:28;100235.38;;;9.03;100.00
42067;BME280;27734;47.028;28.820;2023-04-22T05:14:01;100235.48;;;9.06;100.00
42067;BME280;27734;47.028;28.820;2023-04-22T05:16:40;100232.25;;;9.13;100.00
42067;BME280;27734;47.028;28.820;2023-04-22T05:19:12;100237.66;;;9.17;100.00
42067;BME280;27734;47.028;28.820;2023-04-22T05:21:44;100232.59;;;9.22;100.00
42067;BME280;27734;47.028;28.820;2023-04-22T05:24:16;100234.50;;;9.26;100.00
42067;BME280;27734;47.028;28.820;2023-04-22T05:26:48;100234.72;;;9.32;100.00
42067;BME280;27734;47.028;28.820;2023-04-22T05:29:21;100232.55;;;9.45;100.00
42067;BME280;27734;47.028;28.820;2023-04-22T05:31:52;100233.92;;;9.59;100.00
42067;BME280;27734;47.028;28.820;2023-04-22T05:34:24;100239.59;;;9.71;100.00
42067;BME280;27734;47.028;28.820;2023-04-22T05:36:56;100240.84;;;9.83;100.00
42067;BME280;27734;47.028;28.820;2023-04-22T05:39:28;100236.73;;;9.89;100.00
42067;BME280;27734;47.028;28.820;2023-04-22T05:42:01;100235.05;;;9.92;100.00
42067;BME280;27734;47.028;28.820;2023-04-22T05:44:32;100227.28;;;9.95;100.00
42067;BME280;27734;47.028;28.820;2023-04-22T05:47:04;100230.06;;;9.99;100.00
42067;BME280;27734;47.028;28.820;2023-04-22T05:49:35;100235.61;;;10.08;100.00
42067;BME280;27734;47.028;28.820;2023-04-22T05:52:12;100233.25;;;10.16;100.00
42067;BME280;27734;47.028;28.820;2023-04-22T05:54:55;100227.34;;;10.23;100.00
42067;BME280;27734;47.028;28.820;2023-04-22T05:57:26;100231.08;;;10.30;100.00
42067;BME280;27734;47.028;28.820;2023-04-22T05:59:59;100230.50;;;10.39;100.00
42067;BME280;27734;47.028;28.820;2023-04-22T06:02:30;100235.06;;;10.45;100.00
42067;BME280;27734;47.028;28.820;2023-04-22T06:05:01;100226.55;;;10.52;99.13
42067;BME280;27734;47.028;28.820;2023-04-22T06:07:33;100227.67;;;10.60;99.72
42067;BME280;27734;47.028;28.820;2023-04-22T06:10:05;100230.55;;;10.68;100.00
42067;BME280;27734;47.028;28.820;2023-04-22T06:12:37;100240.31;;;10.73;94.76
42067;BME280;27734;47.028;28.820;2023-04-22T06:15:10;100230.97;;;10.82;97.37
42067;BME280;27734;47.028;28.820;2023-04-22T06:17:41;100230.24;;;10.87;98.01
42067;BME280;27734;47.028;28.820;2023-04-22T06:20:14;100228.72;;;10.94;97.59
42067;BME280;27734;47.028;28.820;2023-04-22T06:22:45;100229.77;;;11.01;98.32
42067;BME280;27734;47.028;28.820;2023-04-22T06:25:17;100233.42;;;11.06;97.28
42067;BME280;27734;47.028;28.820;2023-04-22T06:27:48;100231.84;;;11.12;95.87
42067;BME280;27734;47.028;28.820;2023-04-22T06:30:20;100230.23;;;11.16;96.64
42067;BME280;27734;47.028;28.820;2023-04-22T06:32:51;100234.79;;;11.23;97.46
42067;BME280;27734;47.028;28.820;2023-04-22T06:35:24;100224.59;;;11.34;97.58
42067;BME280;27734;47.028;28.820;2023-04-22T06:37:57;100224.05;;;11.46;96.51
42067;BME280;27734;47.028;28.820;2023-04-22T06:40:31;100233.24;;;11.62;93.94
42067;BME280;27734;47.028;28.820;2023-04-22T06:43:21;100229.36;;;11.81;96.40
42067;BME280;27734;47.028;28.820;2023-04-22T06:46:07;100227.20;;;11.98;96.82
42067;BME280;27734;47.028;28.820;2023-04-22T06:49:01;100231.89;;;12.10;96.83
42067;BME280;27734;47.028;28.820;2023-04-22T06:51:51;100232.93;;;12.16;92.32
42067;BME280;27734;47.028;28.820;2023-04-22T06:54:23;100228.58;;;12.18;87.33
42067;BME280;27734;47.028;28.820;2023-04-22T06:56:55;100227.94;;;12.27;92.14
42067;BME280;27734;47.028;28.820;2023-04-22T06:59:26;100236.89;;;12.35;93.16
42067;BME280;27734;47.028;28.820;2023-04-22T07:01:58;100230.17;;;12.47;91.49
42067;BME280;27734;47.028;28.820;2023-04-22T07:04:31;100229.48;;;12.55;91.20
42067;BME280;27734;47.028;28.820;2023-04-22T07:07:03;100230.56;;;12.64;92.54
42067;BME280;27734;47.028;28.820;2023-04-22T07:09:35;100233.34;;;12.71;89.95
42067;BME280;27734;47.028;28.820;2023-04-22T07:12:07;100236.15;;;12.79;90.47
42067;BME280;27734;47.028;28.820;2023-04-22T07:14:44;100241.63;;;12.88;89.58
42067;BME280;27734;47.028;28.820;2023-04-22T07:17:16;100241.80;;;12.96;88.46
42067;BME280;27734;47.028;28.820;2023-04-22T07:19:51;100239.52;;;13.13;89.68
42067;BME280;27734;47.028;28.820;2023-04-22T07:22:22;100244.11;;;13.22;87.31
42067;BME280;27734;47.028;28.820;2023-04-22T07:24:53;100244.30;;;13.31;87.91
42067;BME280;27734;47.028;28.820;2023-04-22T07:27:25;100247.91;;;13.35;87.20
42067;BME280;27734;47.028;28.820;2023-04-22T07:29:56;100249.73;;;13.37;85.02
42067;BME280;27734;47.028;28.820;2023-04-22T07:32:27;100245.40;;;13.41;86.96
42067;BME280;27734;47.028;28.820;2023-04-22T07:34:58;100249.91;;;13.46;85.02
42067;BME280;27734;47.028;28.820;2023-04-22T07:37:30;100259.67;;;13.52;85.65
42067;BME280;27734;47.028;28.820;2023-04-22T07:40:01;100254.55;;;13.60;86.95
42067;BME280;27734;47.028;28.820;2023-04-22T07:42:32;100257.34;;;13.68;85.97
42067;BME280;27734;47.028;28.820;2023-04-22T07:45:04;100255.72;;;13.76;85.21
42067;BME280;27734;47.028;28.820;2023-04-22T07:47:36;100257.63;;;13.83;84.72
42067;BME280;27734;47.028;28.820;2023-04-22T07:50:09;100254.39;;;13.98;86.65
42067;BME280;27734;47.028;28.820;2023-04-22T07:52:40;100250.22;;;14.11;84.85
42067;BME280;27734;47.028;28.820;2023-04-22T07:55:12;100257.39;;;14.18;85.58
42067;BME280;27734;47.028;28.820;2023-04-22T07:57:43;100266.28;;;14.25;86.51
42067;BME280;27734;47.028;28.820;2023-04-22T08:00:15;100258.39;;;14.26;85.43
42067;BME280;27734;47.028;28.820;2023-04-22T08:02:47;100254.07;;;14.31;86.96
42067;BME280;27734;47.028;28.820;2023-04-22T08:05:18;100256.02;;;14.42;86.94
42067;BME280;27734;47.028;28.820;2023-04-22T08:07:50;100251.68;;;14.47;83.78
42067;BME280;27734;47.028;28.820;2023-04-22T08:10:21;100249.16;;;14.54;84.26
42067;BME280;27734;47.028;28.820;2023-04-22T08:12:52;100251.95;;;14.62;84.05
42067;BME280;27734;47.028;28.820;2023-04-22T08:15:23;100249.34;;;14.64;83.35
42067;BME280;27734;47.028;28.820;2023-04-22T08:17:55;100253.56;;;14.54;78.50
42067;BME280;27734;47.028;28.820;2023-04-22T08:20:26;100253.55;;;14.52;79.66
42067;BME280;27734;47.028;28.820;2023-04-22T08:22:57;100253.42;;;14.45;74.81
42067;BME280;27734;47.028;28.820;2023-04-22T08:25:29;100252.58;;;14.49;76.59
42067;BME280;27734;47.028;28.820;2023-04-22T08:28:00;100252.70;;;14.56;80.62
42067;BME280;27734;47.028;28.820;2023-04-22T08:30:32;100248.47;;;14.63;79.02
42067;BME280;27734;47.028;28.820;2023-04-22T08:33:03;100245.84;;;14.65;80.53
42067;BME280;27734;47.028;28.820;2023-04-22T08:35:36;100255.55;;;14.67;80.61
42067;BME280;27734;47.028;28.820;2023-04-22T08:38:07;100252.88;;;14.66;79.52
42067;BME280;27734;47.028;28.820;2023-04-22T08:40:40;100250.19;;;14.63;81.02
42067;BME280;27734;47.028;28.820;2023-04-22T08:43:12;100240.41;;;14.57;78.67
42067;BME280;27734;47.028;28.820;2023-04-22T08:45:45;100246.50;;;14.53;79.01
42067;BME280;27734;47.028;28.820;2023-04-22T08:48:17;100242.91;;;14.48;77.55
42067;BME280;27734;47.028;28.820;2023-04-22T08:50:49;100238.45;;;14.45;78.74
42067;BME280;27734;47.028;28.820;2023-04-22T08:53:20;100248.14;;;14.45;77.67
42067;BME280;27734;47.028;28.820;2023-04-22T08:55:52;100245.58;;;14.49;76.69
42067;BME280;27734;47.028;28.820;2023-04-22T08:58:25;100239.48;;;14.55;72.19
42067;BME280;27734;47.028;28.820;2023-04-22T09:00:58;100245.08;;;14.73;74.82
42067;BME280;27734;47.028;28.820;2023-04-22T09:03:31;100243.53;;;14.89;75.50
42067;BME280;27734;47.028;28.820;2023-04-22T09:06:12;100247.34;;;15.08;74.49
42067;BME280;27734;47.028;28.820;2023-04-22T09:08:43;100246.65;;;15.25;72.46
42067;BME280;27734;47.028;28.820;2023-04-22T09:11:14;100237.10;;;15.38;66.86
42067;BME280;27734;47.028;28.820;2023-04-22T09:13:47;100239.05;;;15.53;69.48
42067;BME280;27734;47.028;28.820;2023-04-22T09:16:19;100240.11;;;15.70;66.91
42067;BME280;27734;47.028;28.820;2023-04-22T09:18:51;100240.18;;;15.76;67.61
42067;BME280;27734;47.028;28.820;2023-04-22T09:21:25;100234.17;;;15.88;69.97
42067;BME280;27734;47.028;28.820;2023-04-22T09:23:59;100238.65;;;15.97;67.39
42067;BME280;27734;47.028;28.820;2023-04-22T09:26:31;100236.14;;;16.12;69.31
42067;BME280;27734;47.028;28.820;2023-04-22T09:29:02;100238.01;;;16.23;64.30
42067;BME280;27734;47.028;28.820;2023-04-22T09:31:38;100234.59;;;16.39;64.41
42067;BME280;27734;47.028;28.820;2023-04-22T09:34:09;100242.64;;;16.53;64.62
42067;BME280;27734;47.028;28.820;2023-04-22T09:36:41;100237.48;;;16.75;61.78
42067;BME280;27734;47.028;28.820;2023-04-22T09:39:15;100238.48;;;16.89;62.36
42067;BME280;27734;47.028;28.820;2023-04-22T09:41:54;100237.69;;;17.02;62.37
42067;BME280;27734;47.028;28.820;2023-04-22T09:44:27;100232.45;;;17.15;59.78
42067;BME280;27734;47.028;28.820;2023-04-22T09:46:59;100222.78;;;17.31;63.89
42067;BME280;27734;47.028;28.820;2023-04-22T09:49:30;100229.89;;;17.38;55.14
42067;BME280;27734;47.028;28.820;2023-04-22T09:52:06;100227.27;;;17.44;53.29
42067;BME280;27734;47.028;28.820;2023-04-22T09:54:39;100224.62;;;17.46;55.06
42067;BME280;27734;47.028;28.820;2023-04-22T09:57:22;100235.23;;;17.50;56.47
42067;BME280;27734;47.028;28.820;2023-04-22T09:59:53;100225.50;;;17.51;56.88
42067;BME280;27734;47.028;28.820;2023-04-22T10:02:30;100231.70;;;17.54;55.64
42067;BME280;27734;47.028;28.820;2023-04-22T10:05:01;100227.33;;;17.66;58.76
42067;BME280;27734;47.028;28.820;2023-04-22T10:07:33;100227.36;;;17.79;58.45
42067;BME280;27734;47.028;28.820;2023-04-22T10:10:07;100220.33;;;17.91;58.19
42067;BME280;27734;47.028;28.820;2023-04-22T10:12:39;100214.14;;;17.89;54.24
42067;BME280;27734;47.028;28.820;2023-04-22T10:15:10;100221.20;;;17.94;52.97
42067;BME280;27734;47.028;28.820;2023-04-22T10:17:43;100207.94;;;18.02;54.73
42067;BME280;27734;47.028;28.820;2023-04-22T10:20:15;100209.72;;;18.11;54.73
42067;BME280;27734;47.028;28.820;2023-04-22T10:22:47;100220.34;;;18.11;50.66
42067;BME280;27734;47.028;28.820;2023-04-22T10:25:23;100215.91;;;18.04;52.39
42067;BME280;27734;47.028;28.820;2023-04-22T10:27:56;100218.55;;;17.98;51.46
42067;BME280;27734;47.028;28.820;2023-04-22T10:30:34;100215.02;;;17.97;50.57
42067;BME280;27734;47.028;28.820;2023-04-22T10:33:36;100207.05;;;17.95;52.14
42067;BME280;27734;47.028;28.820;2023-04-22T10:36:09;100201.75;;;18.02;52.10
42067;BME280;27734;47.028;28.820;2023-04-22T10:41:34;100198.19;;;18.01;49.68
42067;BME280;27734;47.028;28.820;2023-04-22T10:44:07;100199.97;;;18.11;50.56
42067;BME280;27734;47.028;28.820;2023-04-22T10:47:00;100193.79;;;18.19;43.64
42067;BME280;27734;47.028;28.820;2023-04-22T10:49:32;100184.05;;;18.16;50.06
42067;BME280;27734;47.028;28.820;2023-04-22T10:52:05;100189.35;;;18.07;49.33
42067;BME280;27734;47.028;28.820;2023-04-22T10:54:59;100192.00;;;17.98;49.26
42067;BME280;27734;47.028;28.820;2023-04-22T10:57:33;100196.37;;;17.77;45.27
42067;BME280;27734;47.028;28.820;2023-04-22T11:00:25;100210.48;;;17.60;44.08
42067;BME280;27734;47.028;28.820;2023-04-22T11:03:08;100203.42;;;17.53;46.91
42067;BME280;27734;47.028;28.820;2023-04-22T11:05:40;100206.08;;;17.55;46.95
42067;BME280;27734;47.028;28.820;2023-04-22T11:08:19;100199.02;;;17.66;46.03
42067;BME280;27734;47.028;28.820;2023-04-22T11:10:52;100187.55;;;17.84;47.76
42067;BME280;27734;47.028;28.820;2023-04-22T11:13:38;100194.66;;;17.98;46.37
42067;BME280;27734;47.028;28.820;2023-04-22T11:16:10;100185.83;;;18.03;46.01
42067;BME280;27734;47.028;28.820;2023-04-22T11:18:42;100182.27;;;18.09;46.89
42067;BME280;27734;47.028;28.820;2023-04-22T11:21:16;100195.53;;;18.04;45.40
42067;BME280;27734;47.028;28.820;2023-04-22T11:23:51;100192.87;;;18.00;44.19
42067;BME280;27734;47.028;28.820;2023-04-22T11:26:34;100194.61;;;17.85;38.73
42067;BME280;27734;47.028;28.820;2023-04-22T11:29:06;100201.66;;;17.65;38.30
42067;BME280;27734;47.028;28.820;2023-04-22T11:31:38;100198.98;;;17.54;41.40
42067;BME280;27734;47.028;28.820;2023-04-22T11:34:15;100201.61;;;17.43;42.07
42067;BME280;27734;47.028;28.820;2023-04-22T11:36:47;100200.70;;;17.32;42.96
42067;BME280;27734;47.028;28.820;2023-04-22T11:39:19;100194.49;;;17.23;43.20
42067;BME280;27734;47.028;28.820;2023-04-22T11:41:50;100207.71;;;17.14;42.98
42067;BME280;27734;47.028;28.820;2023-04-22T11:44:24;100205.06;;;17.14;43.46
42067;BME280;27734;47.028;28.820;2023-04-22T11:46:58;100192.67;;;17.13;44.01
42067;BME280;27734;47.028;28.820;2023-04-22T11:49:31;100195.33;;;17.15;43.93
42067;BME280;27734;47.028;28.820;2023-04-22T11:52:02;100185.61;;;17.18;43.37
42067;BME280;27734;47.028;28.820;2023-04-22T11:54:35;100195.37;;;17.24;41.99
42067;BME280;27734;47.028;28.820;2023-04-22T11:57:08;100192.73;;;17.29;43.85
42067;BME280;27734;47.028;28.820;2023-04-22T11:59:43;100191.88;;;17.34;43.15
42067;BME280;27734;47.028;28.820;2023-04-22T12:02:17;100195.44;;;17.44;43.70
42067;BME280;27734;47.028;28.820;2023-04-22T12:04:49;100184.85;;;17.53;43.22
42067;BME280;27734;47.028;28.820;2023-04-22T12:07:20;100179.55;;;17.59;43.07
42067;BME280;27734;47.028;28.820;2023-04-22T12:09:54;100178.66;;;17.67;42.98
42067;BME280;27734;47.028;28.820;2023-04-22T12:12:26;100180.45;;;17.74;43.16
42067;BME280;27734;47.028;28.820;2023-04-22T12:14:58;100176.94;;;17.81;41.24
42067;BME280;27734;47.028;28.820;2023-04-22T12:17:36;100180.46;;;17.77;39.14
42067;BME280;27734;47.028;28.820;2023-04-22T12:20:11;100189.30;;;17.82;41.16
42067;BME280;27734;47.028;28.820;2023-04-22T12:22:42;100179.60;;;17.92;41.83
42067;BME280;27734;47.028;28.820;2023-04-22T12:25:18;100176.95;;;18.04;40.59
42067;BME280;27734;47.028;28.820;2023-04-22T12:27:49;100168.11;;;18.22;42.15
42067;BME280;27734;47.028;28.820;2023-04-22T12:30:20;100168.97;;;18.33;42.13
42067;BME280;27734;47.028;28.820;2023-04-22T12:32:53;100173.40;;;18.39;42.50
42067;BME280;27734;47.028;28.820;2023-04-22T12:35:25;100174.27;;;18.40;41.60
42067;BME280;27734;47.028;28.820;2023-04-22T12:37:56;100178.71;;;18.42;41.49
42067;BME280;27734;47.028;28.820;2023-04-22T12:40:27;100178.72;;;18.39;40.92
42067;BME280;27734;47.028;28.820;2023-04-22T12:42:58;100185.80;;;18.42;40.62
42067;BME280;27734;47.028;28.820;2023-04-22T12:45:30;100190.20;;;18.43;38.77
42067;BME280;27734;47.028;28.820;2023-04-22T12:48:01;100194.66;;;18.41;38.94
42067;BME280;27734;47.028;28.820;2023-04-22T12:50:32;100184.03;;;18.35;39.91
42067;BME280;27734;47.028;28.820;2023-04-22T12:53:03;100179.60;;;18.29;39.81
42067;BME280;27734;47.028;28.820;2023-04-22T12:55:35;100195.54;;;18.18;39.05
42067;BME280;27734;47.028;28.820;2023-04-22T12:58:07;100185.83;;;18.17;39.81
42067;BME280;27734;47.028;28.820;2023-04-22T13:03:23;100182.27;;;18.13;39.32
42067;BME280;27734;47.028;28.820;2023-04-22T13:05:55;100186.70;;;18.04;35.70
42067;BME280;27734;47.028;28.820;2023-04-22T13:08:26;100184.92;;;18.06;38.05
42067;BME280;27734;47.028;28.820;2023-04-22T13:10:58;100181.39;;;18.02;38.01
42067;BME280;27734;47.028;28.820;2023-04-22T13:13:29;100189.34;;;17.98;37.11
42067;BME280;27734;47.028;28.820;2023-04-22T13:16:01;100184.91;;;17.95;38.26
42067;BME280;27734;47.028;28.820;2023-04-22T13:18:32;100186.69;;;17.93;37.83